Terminal Aerodrome Forecast
Issued by NWS Shreveport, LA

Home | Current Version | Previous Version | Text Only | Print | Product List | Glossary On
Versions: 1 2 3 4 5 6 7 8 9 10 11 12 13 14 15 16 17 18 19 20 21
000
FTUS44 KSHV 011400 AAA
TAFMLU
TAF AMD
KMLU 011406Z 0114/0212 18006KT 3SM BR OVC004
      TEMPO 0114/0115 6SM BR SCT004 BKN012
     FM011500 19008KT 6SM BR BKN012
     FM011600 19008KT P6SM BKN024
     FM011800 19010KT P6SM VCSH SCT045
     FM020100 18006KT P6SM FEW060
      TEMPO 0209/0212 5SM BR BKN010=

USA.gov is the U.S. government's official web portal to all federal, state and local government web resources and services.